sensor_id;sensor_type;location;lat;lon;timestamp;P1;durP1;ratioP1;P2;durP2;ratioP2
53271;SDS011;39160;48.580;7.756;2022-07-23T00:03:13;4.60;;;4.15;;
53271;SDS011;39160;48.580;7.756;2022-07-23T00:08:04;7.50;;;4.80;;
53271;SDS011;39160;48.580;7.756;2022-07-23T00:12:55;7.20;;;3.88;;
53271;SDS011;39160;48.580;7.756;2022-07-23T00:17:45;7.43;;;4.55;;
53271;SDS011;39160;48.580;7.756;2022-07-23T00:22:36;4.97;;;4.18;;
53271;SDS011;39160;48.580;7.756;2022-07-23T00:27:27;8.75;;;5.60;;
53271;SDS011;39160;48.580;7.756;2022-07-23T00:32:17;4.90;;;4.40;;
53271;SDS011;39160;48.580;7.756;2022-07-23T00:37:08;5.68;;;4.38;;
53271;SDS011;39160;48.580;7.756;2022-07-23T00:41:58;6.47;;;5.05;;
53271;SDS011;39160;48.580;7.756;2022-07-23T00:46:50;6.47;;;4.22;;
53271;SDS011;39160;48.580;7.756;2022-07-23T00:51:43;6.38;;;5.00;;
53271;SDS011;39160;48.580;7.756;2022-07-23T00:56:34;7.78;;;4.88;;
53271;SDS011;39160;48.580;7.756;2022-07-23T01:01:24;6.65;;;4.45;;
53271;SDS011;39160;48.580;7.756;2022-07-23T01:06:15;7.45;;;4.45;;
53271;SDS011;39160;48.580;7.756;2022-07-23T01:11:06;5.18;;;4.30;;
53271;SDS011;39160;48.580;7.756;2022-07-23T01:15:57;6.85;;;4.97;;
53271;SDS011;39160;48.580;7.756;2022-07-23T01:20:48;5.03;;;4.43;;
53271;SDS011;39160;48.580;7.756;2022-07-23T01:25:47;6.50;;;4.00;;
53271;SDS011;39160;48.580;7.756;2022-07-23T01:30:38;6.97;;;4.40;;
53271;SDS011;39160;48.580;7.756;2022-07-23T01:35:29;3.95;;;3.50;;
53271;SDS011;39160;48.580;7.756;2022-07-23T01:40:20;4.45;;;3.15;;
53271;SDS011;39160;48.580;7.756;2022-07-23T01:45:10;5.07;;;3.53;;
53271;SDS011;39160;48.580;7.756;2022-07-23T01:50:01;3.65;;;2.53;;
53271;SDS011;39160;48.580;7.756;2022-07-23T01:54:52;4.10;;;2.70;;
53271;SDS011;39160;48.580;7.756;2022-07-23T01:59:43;2.85;;;2.38;;
53271;SDS011;39160;48.580;7.756;2022-07-23T02:04:33;3.55;;;3.22;;
53271;SDS011;39160;48.580;7.756;2022-07-23T02:09:27;5.43;;;2.97;;
53271;SDS011;39160;48.580;7.756;2022-07-23T02:14:18;5.80;;;3.35;;
53271;SDS011;39160;48.580;7.756;2022-07-23T02:19:09;3.58;;;3.05;;
53271;SDS011;39160;48.580;7.756;2022-07-23T02:23:59;4.63;;;2.90;;
53271;SDS011;39160;48.580;7.756;2022-07-23T02:28:50;4.03;;;2.80;;
53271;SDS011;39160;48.580;7.756;2022-07-23T02:33:42;4.68;;;3.00;;
53271;SDS011;39160;48.580;7.756;2022-07-23T02:38:33;3.83;;;2.80;;
53271;SDS011;39160;48.580;7.756;2022-07-23T02:43:24;4.38;;;3.40;;
53271;SDS011;39160;48.580;7.756;2022-07-23T02:48:14;5.53;;;3.95;;
53271;SDS011;39160;48.580;7.756;2022-07-23T02:53:05;5.57;;;4.15;;
53271;SDS011;39160;48.580;7.756;2022-07-23T02:57:56;4.53;;;4.03;;
53271;SDS011;39160;48.580;7.756;2022-07-23T03:02:46;7.47;;;5.07;;
53271;SDS011;39160;48.580;7.756;2022-07-23T03:07:37;6.60;;;4.18;;
53271;SDS011;39160;48.580;7.756;2022-07-23T03:12:28;7.30;;;3.95;;
53271;SDS011;39160;48.580;7.756;2022-07-23T03:17:18;6.18;;;4.43;;
53271;SDS011;39160;48.580;7.756;2022-07-23T03:22:09;5.10;;;3.65;;
53271;SDS011;39160;48.580;7.756;2022-07-23T03:26:59;6.80;;;3.60;;
53271;SDS011;39160;48.580;7.756;2022-07-23T03:31:50;4.60;;;3.08;;
53271;SDS011;39160;48.580;7.756;2022-07-23T03:36:41;6.10;;;4.53;;
53271;SDS011;39160;48.580;7.756;2022-07-23T03:41:31;7.53;;;4.45;;
53271;SDS011;39160;48.580;7.756;2022-07-23T03:46:22;6.63;;;4.53;;
53271;SDS011;39160;48.580;7.756;2022-07-23T03:51:12;5.13;;;4.15;;
53271;SDS011;39160;48.580;7.756;2022-07-23T03:56:03;7.38;;;4.75;;
53271;SDS011;39160;48.580;7.756;2022-07-23T04:00:54;6.43;;;5.15;;
53271;SDS011;39160;48.580;7.756;2022-07-23T04:05:45;7.65;;;4.90;;
53271;SDS011;39160;48.580;7.756;2022-07-23T04:10:35;7.28;;;5.45;;
53271;SDS011;39160;48.580;7.756;2022-07-23T04:15:26;6.43;;;5.72;;
53271;SDS011;39160;48.580;7.756;2022-07-23T04:20:16;6.72;;;5.03;;
53271;SDS011;39160;48.580;7.756;2022-07-23T04:25:07;6.88;;;4.90;;
53271;SDS011;39160;48.580;7.756;2022-07-23T04:29:58;6.65;;;4.78;;
53271;SDS011;39160;48.580;7.756;2022-07-23T04:34:49;6.65;;;4.82;;
53271;SDS011;39160;48.580;7.756;2022-07-23T04:39:40;8.10;;;4.85;;
53271;SDS011;39160;48.580;7.756;2022-07-23T04:44:30;7.70;;;5.07;;
53271;SDS011;39160;48.580;7.756;2022-07-23T04:49:21;5.22;;;3.85;;
53271;SDS011;39160;48.580;7.756;2022-07-23T04:54:12;8.82;;;4.93;;
53271;SDS011;39160;48.580;7.756;2022-07-23T04:59:02;5.68;;;4.65;;
53271;SDS011;39160;48.580;7.756;2022-07-23T05:03:53;7.45;;;4.88;;
53271;SDS011;39160;48.580;7.756;2022-07-23T05:08:43;6.07;;;4.43;;
53271;SDS011;39160;48.580;7.756;2022-07-23T05:13:34;7.80;;;5.13;;
53271;SDS011;39160;48.580;7.756;2022-07-23T05:18:25;6.40;;;4.88;;
53271;SDS011;39160;48.580;7.756;2022-07-23T05:23:15;8.15;;;5.40;;
53271;SDS011;39160;48.580;7.756;2022-07-23T05:28:06;9.65;;;5.50;;
53271;SDS011;39160;48.580;7.756;2022-07-23T05:32:56;8.35;;;5.78;;
53271;SDS011;39160;48.580;7.756;2022-07-23T05:37:47;7.63;;;5.68;;
53271;SDS011;39160;48.580;7.756;2022-07-23T05:42:38;7.63;;;5.60;;
53271;SDS011;39160;48.580;7.756;2022-07-23T05:47:43;6.70;;;4.95;;
53271;SDS011;39160;48.580;7.756;2022-07-23T05:52:34;4.72;;;4.22;;
53271;SDS011;39160;48.580;7.756;2022-07-23T05:57:25;7.30;;;5.07;;
53271;SDS011;39160;48.580;7.756;2022-07-23T06:02:16;6.45;;;4.53;;
53271;SDS011;39160;48.580;7.756;2022-07-23T06:07:06;8.57;;;5.47;;
53271;SDS011;39160;48.580;7.756;2022-07-23T06:11:57;7.47;;;5.47;;
53271;SDS011;39160;48.580;7.756;2022-07-23T06:16:48;7.07;;;5.20;;
53271;SDS011;39160;48.580;7.756;2022-07-23T06:21:38;7.22;;;5.32;;
53271;SDS011;39160;48.580;7.756;2022-07-23T06:26:29;8.57;;;6.20;;
53271;SDS011;39160;48.580;7.756;2022-07-23T06:31:19;9.55;;;5.50;;
53271;SDS011;39160;48.580;7.756;2022-07-23T06:36:10;8.02;;;5.30;;
53271;SDS011;39160;48.580;7.756;2022-07-23T06:41:01;6.38;;;4.72;;
53271;SDS011;39160;48.580;7.756;2022-07-23T06:45:51;7.72;;;6.10;;
53271;SDS011;39160;48.580;7.756;2022-07-23T06:50:42;10.70;;;5.47;;
53271;SDS011;39160;48.580;7.756;2022-07-23T06:55:33;7.88;;;5.18;;
53271;SDS011;39160;48.580;7.756;2022-07-23T07:00:28;6.72;;;5.25;;
53271;SDS011;39160;48.580;7.756;2022-07-23T07:05:20;9.40;;;5.50;;
53271;SDS011;39160;48.580;7.756;2022-07-23T07:10:11;10.23;;;6.95;;
53271;SDS011;39160;48.580;7.756;2022-07-23T07:15:01;9.45;;;6.30;;
53271;SDS011;39160;48.580;7.756;2022-07-23T07:19:52;9.48;;;5.32;;
53271;SDS011;39160;48.580;7.756;2022-07-23T07:24:43;7.53;;;5.72;;
53271;SDS011;39160;48.580;7.756;2022-07-23T07:29:34;7.28;;;5.93;;
53271;SDS011;39160;48.580;7.756;2022-07-23T07:34:24;10.00;;;6.65;;
53271;SDS011;39160;48.580;7.756;2022-07-23T07:39:15;10.05;;;5.32;;
53271;SDS011;39160;48.580;7.756;2022-07-23T07:44:05;8.48;;;6.32;;
53271;SDS011;39160;48.580;7.756;2022-07-23T07:48:56;9.02;;;5.82;;
53271;SDS011;39160;48.580;7.756;2022-07-23T07:53:47;7.70;;;5.90;;
53271;SDS011;39160;48.580;7.756;2022-07-23T07:58:37;9.43;;;6.38;;
53271;SDS011;39160;48.580;7.756;2022-07-23T08:03:28;8.35;;;7.00;;
53271;SDS011;39160;48.580;7.756;2022-07-23T08:08:19;9.50;;;7.15;;
53271;SDS011;39160;48.580;7.756;2022-07-23T08:13:13;8.85;;;6.43;;
53271;SDS011;39160;48.580;7.756;2022-07-23T08:18:05;8.45;;;6.43;;
53271;SDS011;39160;48.580;7.756;2022-07-23T08:22:57;6.93;;;5.55;;
53271;SDS011;39160;48.580;7.756;2022-07-23T08:27:55;7.75;;;5.60;;
53271;SDS011;39160;48.580;7.756;2022-07-23T08:32:57;9.85;;;5.40;;
53271;SDS011;39160;48.580;7.756;2022-07-23T08:37:53;8.02;;;5.68;;
53271;SDS011;39160;48.580;7.756;2022-07-23T08:42:46;8.52;;;6.00;;
53271;SDS011;39160;48.580;7.756;2022-07-23T08:47:38;7.73;;;6.57;;
53271;SDS011;39160;48.580;7.756;2022-07-23T08:52:30;7.97;;;5.82;;
53271;SDS011;39160;48.580;7.756;2022-07-23T08:57:20;8.82;;;6.13;;
53271;SDS011;39160;48.580;7.756;2022-07-23T09:02:12;10.20;;;7.43;;
53271;SDS011;39160;48.580;7.756;2022-07-23T09:07:02;8.15;;;6.60;;
53271;SDS011;39160;48.580;7.756;2022-07-23T09:12:03;9.80;;;6.70;;
53271;SDS011;39160;48.580;7.756;2022-07-23T09:17:07;7.78;;;5.53;;
53271;SDS011;39160;48.580;7.756;2022-07-23T09:27:09;6.85;;;5.93;;
53271;SDS011;39160;48.580;7.756;2022-07-23T09:32:01;8.63;;;6.68;;
53271;SDS011;39160;48.580;7.756;2022-07-23T09:36:56;7.50;;;6.05;;
53271;SDS011;39160;48.580;7.756;2022-07-23T09:41:48;8.70;;;7.05;;
53271;SDS011;39160;48.580;7.756;2022-07-23T09:46:38;6.53;;;5.30;;
53271;SDS011;39160;48.580;7.756;2022-07-23T09:51:30;6.32;;;5.63;;
53271;SDS011;39160;48.580;7.756;2022-07-23T09:56:21;7.80;;;5.82;;
53271;SDS011;39160;48.580;7.756;2022-07-23T10:01:13;7.45;;;6.10;;
53271;SDS011;39160;48.580;7.756;2022-07-23T10:06:04;6.80;;;5.35;;
53271;SDS011;39160;48.580;7.756;2022-07-23T10:10:55;6.90;;;5.18;;
53271;SDS011;39160;48.580;7.756;2022-07-23T10:15:46;9.32;;;5.43;;
53271;SDS011;39160;48.580;7.756;2022-07-23T10:20:37;5.82;;;4.90;;
53271;SDS011;39160;48.580;7.756;2022-07-23T10:31:04;8.88;;;5.78;;
53271;SDS011;39160;48.580;7.756;2022-07-23T10:41:12;7.85;;;5.57;;
53271;SDS011;39160;48.580;7.756;2022-07-23T10:46:22;4.82;;;4.30;;
53271;SDS011;39160;48.580;7.756;2022-07-23T10:51:19;6.40;;;4.75;;
53271;SDS011;39160;48.580;7.756;2022-07-23T10:56:13;7.82;;;4.80;;
53271;SDS011;39160;48.580;7.756;2022-07-23T11:01:29;6.13;;;4.53;;
53271;SDS011;39160;48.580;7.756;2022-07-23T11:06:22;5.10;;;4.60;;
53271;SDS011;39160;48.580;7.756;2022-07-23T11:11:12;7.80;;;4.88;;
53271;SDS011;39160;48.580;7.756;2022-07-23T11:16:04;6.15;;;5.30;;
53271;SDS011;39160;48.580;7.756;2022-07-23T11:20:56;5.93;;;5.05;;
53271;SDS011;39160;48.580;7.756;2022-07-23T11:25:47;5.65;;;4.50;;
53271;SDS011;39160;48.580;7.756;2022-07-23T11:30:39;6.75;;;5.20;;
53271;SDS011;39160;48.580;7.756;2022-07-23T11:35:31;8.70;;;5.18;;
53271;SDS011;39160;48.580;7.756;2022-07-23T11:40:21;5.20;;;4.43;;
53271;SDS011;39160;48.580;7.756;2022-07-23T11:45:12;6.15;;;4.45;;
53271;SDS011;39160;48.580;7.756;2022-07-23T11:50:04;7.00;;;4.05;;
53271;SDS011;39160;48.580;7.756;2022-07-23T11:55:04;7.00;;;5.10;;
53271;SDS011;39160;48.580;7.756;2022-07-23T12:00:10;6.75;;;4.75;;
53271;SDS011;39160;48.580;7.756;2022-07-23T12:05:12;6.20;;;4.55;;
53271;SDS011;39160;48.580;7.756;2022-07-23T12:15:01;6.43;;;4.82;;
53271;SDS011;39160;48.580;7.756;2022-07-23T12:19:52;6.28;;;5.68;;
53271;SDS011;39160;48.580;7.756;2022-07-23T12:24:54;5.97;;;4.35;;
53271;SDS011;39160;48.580;7.756;2022-07-23T12:29:50;5.53;;;4.57;;
53271;SDS011;39160;48.580;7.756;2022-07-23T12:34:42;5.25;;;4.68;;
53271;SDS011;39160;48.580;7.756;2022-07-23T12:39:32;5.75;;;4.15;;
53271;SDS011;39160;48.580;7.756;2022-07-23T12:44:23;6.53;;;5.20;;
53271;SDS011;39160;48.580;7.756;2022-07-23T12:49:22;5.03;;;4.50;;
53271;SDS011;39160;48.580;7.756;2022-07-23T12:54:16;4.80;;;4.00;;
53271;SDS011;39160;48.580;7.756;2022-07-23T12:59:07;5.20;;;4.70;;
53271;SDS011;39160;48.580;7.756;2022-07-23T13:04:08;6.10;;;4.25;;
53271;SDS011;39160;48.580;7.756;2022-07-23T13:09:01;5.07;;;4.57;;
53271;SDS011;39160;48.580;7.756;2022-07-23T13:13:53;5.68;;;4.93;;
53271;SDS011;39160;48.580;7.756;2022-07-23T13:18:43;5.35;;;4.63;;
53271;SDS011;39160;48.580;7.756;2022-07-23T13:23:34;4.68;;;4.20;;
53271;SDS011;39160;48.580;7.756;2022-07-23T13:28:25;4.82;;;4.43;;
53271;SDS011;39160;48.580;7.756;2022-07-23T13:33:17;4.55;;;4.15;;
53271;SDS011;39160;48.580;7.756;2022-07-23T13:38:09;5.25;;;4.05;;
53271;SDS011;39160;48.580;7.756;2022-07-23T13:43:00;5.85;;;4.35;;
53271;SDS011;39160;48.580;7.756;2022-07-23T13:47:51;6.50;;;4.65;;
53271;SDS011;39160;48.580;7.756;2022-07-23T13:52:42;5.38;;;4.78;;
53271;SDS011;39160;48.580;7.756;2022-07-23T13:57:33;6.25;;;5.03;;
53271;SDS011;39160;48.580;7.756;2022-07-23T14:02:23;6.70;;;4.97;;
53271;SDS011;39160;48.580;7.756;2022-07-23T14:07:15;5.10;;;4.60;;
53271;SDS011;39160;48.580;7.756;2022-07-23T14:12:06;4.72;;;4.22;;
53271;SDS011;39160;48.580;7.756;2022-07-23T14:16:57;5.95;;;4.65;;
53271;SDS011;39160;48.580;7.756;2022-07-23T14:21:48;5.70;;;5.00;;
53271;SDS011;39160;48.580;7.756;2022-07-23T14:26:39;6.80;;;4.73;;
53271;SDS011;39160;48.580;7.756;2022-07-23T14:31:30;5.43;;;4.90;;
53271;SDS011;39160;48.580;7.756;2022-07-23T14:36:20;5.03;;;4.53;;
53271;SDS011;39160;48.580;7.756;2022-07-23T14:41:11;6.10;;;5.13;;
53271;SDS011;39160;48.580;7.756;2022-07-23T14:46:02;5.50;;;4.85;;
53271;SDS011;39160;48.580;7.756;2022-07-23T14:50:52;7.65;;;5.70;;
53271;SDS011;39160;48.580;7.756;2022-07-23T14:55:43;5.78;;;4.80;;
53271;SDS011;39160;48.580;7.756;2022-07-23T15:00:34;5.97;;;5.38;;
53271;SDS011;39160;48.580;7.756;2022-07-23T15:05:25;6.03;;;4.60;;
53271;SDS011;39160;48.580;7.756;2022-07-23T15:10:15;5.40;;;4.40;;
53271;SDS011;39160;48.580;7.756;2022-07-23T15:15:06;6.85;;;4.88;;
53271;SDS011;39160;48.580;7.756;2022-07-23T15:19:57;5.43;;;4.93;;
53271;SDS011;39160;48.580;7.756;2022-07-23T15:24:48;5.88;;;5.38;;
53271;SDS011;39160;48.580;7.756;2022-07-23T15:29:38;7.28;;;5.15;;
53271;SDS011;39160;48.580;7.756;2022-07-23T15:34:29;8.13;;;5.15;;
53271;SDS011;39160;48.580;7.756;2022-07-23T15:39:20;5.60;;;4.78;;
53271;SDS011;39160;48.580;7.756;2022-07-23T15:44:11;5.00;;;4.28;;
53271;SDS011;39160;48.580;7.756;2022-07-23T15:49:02;6.53;;;4.50;;
53271;SDS011;39160;48.580;7.756;2022-07-23T15:53:53;5.30;;;4.70;;
53271;SDS011;39160;48.580;7.756;2022-07-23T15:58:44;6.07;;;4.57;;
53271;SDS011;39160;48.580;7.756;2022-07-23T16:03:35;4.77;;;4.27;;
53271;SDS011;39160;48.580;7.756;2022-07-23T16:08:26;4.63;;;4.10;;
53271;SDS011;39160;48.580;7.756;2022-07-23T16:13:16;6.83;;;4.60;;
53271;SDS011;39160;48.580;7.756;2022-07-23T16:18:07;4.63;;;4.20;;
53271;SDS011;39160;48.580;7.756;2022-07-23T16:22:58;5.20;;;4.73;;
53271;SDS011;39160;48.580;7.756;2022-07-23T16:27:49;6.18;;;4.50;;
53271;SDS011;39160;48.580;7.756;2022-07-23T16:32:40;5.32;;;4.60;;
53271;SDS011;39160;48.580;7.756;2022-07-23T16:37:31;7.38;;;4.78;;
53271;SDS011;39160;48.580;7.756;2022-07-23T16:42:21;5.55;;;4.22;;
53271;SDS011;39160;48.580;7.756;2022-07-23T16:47:12;6.88;;;4.63;;
53271;SDS011;39160;48.580;7.756;2022-07-23T16:52:03;6.32;;;4.38;;
53271;SDS011;39160;48.580;7.756;2022-07-23T16:56:57;6.45;;;5.00;;
53271;SDS011;39160;48.580;7.756;2022-07-23T17:01:48;7.18;;;4.25;;
53271;SDS011;39160;48.580;7.756;2022-07-23T17:06:38;9.45;;;4.72;;
53271;SDS011;39160;48.580;7.756;2022-07-23T17:11:29;8.25;;;4.82;;
53271;SDS011;39160;48.580;7.756;2022-07-23T17:16:20;4.80;;;4.33;;
53271;SDS011;39160;48.580;7.756;2022-07-23T17:21:10;9.60;;;4.57;;
53271;SDS011;39160;48.580;7.756;2022-07-23T17:26:01;8.35;;;5.05;;
53271;SDS011;39160;48.580;7.756;2022-07-23T17:30:52;5.18;;;4.68;;
53271;SDS011;39160;48.580;7.756;2022-07-23T17:35:43;5.40;;;4.13;;
53271;SDS011;39160;48.580;7.756;2022-07-23T17:40:34;4.95;;;4.45;;
53271;SDS011;39160;48.580;7.756;2022-07-23T17:45:24;7.93;;;5.20;;
53271;SDS011;39160;48.580;7.756;2022-07-23T17:50:15;6.13;;;4.53;;
53271;SDS011;39160;48.580;7.756;2022-07-23T17:55:06;8.40;;;5.18;;
53271;SDS011;39160;48.580;7.756;2022-07-23T17:59:57;7.13;;;4.55;;
53271;SDS011;39160;48.580;7.756;2022-07-23T18:04:47;8.13;;;5.55;;
53271;SDS011;39160;48.580;7.756;2022-07-23T18:09:38;6.75;;;5.10;;
53271;SDS011;39160;48.580;7.756;2022-07-23T18:14:29;7.05;;;5.07;;
53271;SDS011;39160;48.580;7.756;2022-07-23T18:19:19;9.90;;;6.00;;
53271;SDS011;39160;48.580;7.756;2022-07-23T18:24:10;6.55;;;4.72;;
53271;SDS011;39160;48.580;7.756;2022-07-23T18:29:01;7.22;;;5.25;;
53271;SDS011;39160;48.580;7.756;2022-07-23T18:33:51;6.78;;;4.63;;
53271;SDS011;39160;48.580;7.756;2022-07-23T18:38:42;7.80;;;4.93;;
53271;SDS011;39160;48.580;7.756;2022-07-23T18:43:33;8.63;;;5.22;;
53271;SDS011;39160;48.580;7.756;2022-07-23T18:48:25;6.32;;;4.55;;
53271;SDS011;39160;48.580;7.756;2022-07-23T18:53:16;7.60;;;5.43;;
53271;SDS011;39160;48.580;7.756;2022-07-23T18:58:07;6.00;;;5.22;;
53271;SDS011;39160;48.580;7.756;2022-07-23T19:02:57;8.05;;;5.03;;
53271;SDS011;39160;48.580;7.756;2022-07-23T19:07:48;6.50;;;4.53;;
53271;SDS011;39160;48.580;7.756;2022-07-23T19:12:39;6.97;;;5.05;;
53271;SDS011;39160;48.580;7.756;2022-07-23T19:17:30;6.85;;;4.78;;
53271;SDS011;39160;48.580;7.756;2022-07-23T19:22:20;9.60;;;4.90;;
53271;SDS011;39160;48.580;7.756;2022-07-23T19:27:11;7.32;;;5.05;;
53271;SDS011;39160;48.580;7.756;2022-07-23T19:32:03;7.28;;;5.05;;
53271;SDS011;39160;48.580;7.756;2022-07-23T19:36:55;8.35;;;5.30;;
53271;SDS011;39160;48.580;7.756;2022-07-23T19:41:45;11.13;;;5.35;;
53271;SDS011;39160;48.580;7.756;2022-07-23T19:46:36;5.82;;;4.75;;
53271;SDS011;39160;48.580;7.756;2022-07-23T19:51:27;6.47;;;4.85;;
53271;SDS011;39160;48.580;7.756;2022-07-23T19:56:17;7.68;;;5.70;;
53271;SDS011;39160;48.580;7.756;2022-07-23T20:01:10;6.97;;;5.93;;
53271;SDS011;39160;48.580;7.756;2022-07-23T20:06:01;7.78;;;5.90;;
53271;SDS011;39160;48.580;7.756;2022-07-23T20:10:51;10.13;;;5.57;;
53271;SDS011;39160;48.580;7.756;2022-07-23T20:15:42;8.60;;;5.43;;
53271;SDS011;39160;48.580;7.756;2022-07-23T20:20:33;10.30;;;5.78;;
53271;SDS011;39160;48.580;7.756;2022-07-23T20:25:24;9.25;;;6.25;;
53271;SDS011;39160;48.580;7.756;2022-07-23T20:30:14;11.02;;;5.32;;
53271;SDS011;39160;48.580;7.756;2022-07-23T20:35:05;7.35;;;5.53;;
53271;SDS011;39160;48.580;7.756;2022-07-23T20:39:56;7.70;;;5.68;;
53271;SDS011;39160;48.580;7.756;2022-07-23T20:44:47;7.95;;;4.97;;
53271;SDS011;39160;48.580;7.756;2022-07-23T20:49:38;7.43;;;6.10;;
53271;SDS011;39160;48.580;7.756;2022-07-23T20:54:29;12.07;;;6.82;;
53271;SDS011;39160;48.580;7.756;2022-07-23T20:59:19;7.40;;;4.93;;
53271;SDS011;39160;48.580;7.756;2022-07-23T21:04:10;8.90;;;5.00;;
53271;SDS011;39160;48.580;7.756;2022-07-23T21:09:01;7.28;;;4.90;;
53271;SDS011;39160;48.580;7.756;2022-07-23T21:13:52;7.63;;;5.40;;
53271;SDS011;39160;48.580;7.756;2022-07-23T21:18:42;7.63;;;5.95;;
53271;SDS011;39160;48.580;7.756;2022-07-23T21:23:37;9.13;;;5.82;;
53271;SDS011;39160;48.580;7.756;2022-07-23T21:28:31;8.20;;;5.40;;
53271;SDS011;39160;48.580;7.756;2022-07-23T21:33:22;8.23;;;5.78;;
53271;SDS011;39160;48.580;7.756;2022-07-23T21:38:12;7.53;;;5.53;;
53271;SDS011;39160;48.580;7.756;2022-07-23T21:43:03;6.50;;;5.15;;
53271;SDS011;39160;48.580;7.756;2022-07-23T21:47:54;8.70;;;5.93;;
53271;SDS011;39160;48.580;7.756;2022-07-23T21:52:45;8.18;;;5.50;;
53271;SDS011;39160;48.580;7.756;2022-07-23T21:57:36;8.23;;;5.60;;
53271;SDS011;39160;48.580;7.756;2022-07-23T22:02:27;6.50;;;5.28;;
53271;SDS011;39160;48.580;7.756;2022-07-23T22:07:17;9.18;;;5.75;;
53271;SDS011;39160;48.580;7.756;2022-07-23T22:12:08;6.43;;;5.18;;
53271;SDS011;39160;48.580;7.756;2022-07-23T22:16:59;7.82;;;5.20;;
53271;SDS011;39160;48.580;7.756;2022-07-23T22:21:50;9.43;;;5.80;;
53271;SDS011;39160;48.580;7.756;2022-07-23T22:26:41;6.60;;;4.85;;
53271;SDS011;39160;48.580;7.756;2022-07-23T22:31:32;6.25;;;4.78;;
53271;SDS011;39160;48.580;7.756;2022-07-23T22:36:23;7.18;;;5.60;;
53271;SDS011;39160;48.580;7.756;2022-07-23T22:41:14;5.15;;;4.45;;
53271;SDS011;39160;48.580;7.756;2022-07-23T22:46:04;7.32;;;5.00;;
53271;SDS011;39160;48.580;7.756;2022-07-23T22:50:55;6.30;;;4.88;;
53271;SDS011;39160;48.580;7.756;2022-07-23T22:55:46;8.35;;;5.35;;
53271;SDS011;39160;48.580;7.756;2022-07-23T23:00:36;6.72;;;4.53;;
53271;SDS011;39160;48.580;7.756;2022-07-23T23:05:27;6.30;;;5.05;;
53271;SDS011;39160;48.580;7.756;2022-07-23T23:10:18;6.72;;;4.80;;
53271;SDS011;39160;48.580;7.756;2022-07-23T23:15:09;7.82;;;5.20;;
53271;SDS011;39160;48.580;7.756;2022-07-23T23:20:00;7.38;;;4.63;;
53271;SDS011;39160;48.580;7.756;2022-07-23T23:24:51;7.72;;;4.90;;
53271;SDS011;39160;48.580;7.756;2022-07-23T23:29:41;9.77;;;4.93;;
53271;SDS011;39160;48.580;7.756;2022-07-23T23:34:32;6.20;;;4.97;;
53271;SDS011;39160;48.580;7.756;2022-07-23T23:39:23;6.03;;;4.90;;
53271;SDS011;39160;48.580;7.756;2022-07-23T23:44:13;6.63;;;4.75;;
53271;SDS011;39160;48.580;7.756;2022-07-23T23:49:06;5.68;;;4.70;;
53271;SDS011;39160;48.580;7.756;2022-07-23T23:53:57;6.57;;;5.30;;
53271;SDS011;39160;48.580;7.756;2022-07-23T23:58:48;5.95;;;5.05;;
